Time;durP1;ratioP1;P1;durP2;ratioP2;P2;SDS_P1;SDS_P2;PMS_P1;PMS_P2;Temp;Humidity;BMP_temperature;BMP_pressure;BME280_temperature;BME280_humidity;BME280_pressure;Samples;Min_cycle;Max_cycle;Signal;HPM_P1;HPM_P2
2023/10/02 00:01:06;;;;;;;11.57;8.70;;;17.40;99.90;;;;;;5029229;28;20870;-68
2023/10/02 00:03:29;;;;;;;14.27;9.50;;;17.40;99.90;;;;;;5018432;28;21020;-68
2023/10/02 00:05:56;;;;;;;12.70;8.90;;;17.40;99.90;;;;;;5024304;28;20458;-68
2023/10/02 00:08:39;;;;;;;12.27;9.27;;;17.40;99.90;;;;;;5028606;28;20483;-68
2023/10/02 00:14:18;;;;;;;11.50;7.90;;;17.30;99.90;;;;;;5028132;28;20419;-68
2023/10/02 00:16:43;;;;;;;11.05;8.52;;;17.30;99.90;;;;;;5021361;28;20521;-68
2023/10/02 00:19:22;;;;;;;10.50;8.40;;;17.30;99.90;;;;;;5018336;28;20505;-68
2023/10/02 00:21:50;;;;;;;11.95;9.27;;;17.30;99.90;;;;;;5021035;28;20545;-68
2023/10/02 00:24:18;;;;;;;11.82;8.50;;;17.30;99.90;;;;;;5025354;28;21030;-70
2023/10/02 00:26:45;;;;;;;11.55;8.63;;;17.30;99.90;;;;;;5020297;28;20704;-68
2023/10/02 00:29:12;;;;;;;10.98;8.60;;;17.20;99.90;;;;;;5014381;28;20415;-68
2023/10/02 00:31:42;;;;;;;12.55;9.20;;;17.20;99.90;;;;;;5019031;28;20870;-68
2023/10/02 00:34:09;;;;;;;11.82;9.10;;;17.20;99.90;;;;;;5013659;28;20434;-68
2023/10/02 00:36:36;;;;;;;13.27;9.03;;;17.20;99.90;;;;;;5022646;28;20435;-67
2023/10/02 00:39:25;;;;;;;11.93;9.07;;;17.10;99.90;;;;;;5024300;28;20929;-68
2023/10/02 00:47:41;;;;;;;11.70;9.50;;;17.10;99.90;;;;;;5010889;28;20890;-69
2023/10/02 00:50:19;;;;;;;12.65;9.13;;;17.10;99.90;;;;;;5021506;28;20735;-68
2023/10/02 00:52:55;;;;;;;12.70;8.97;;;17.00;99.90;;;;;;5025203;28;20419;-68
2023/10/02 00:55:24;;;;;;;11.30;8.70;;;17.00;99.90;;;;;;5025247;28;20840;-68
2023/10/02 00:57:56;;;;;;;11.50;9.07;;;17.00;99.90;;;;;;5027669;28;20415;-68
2023/10/02 01:00:35;;;;;;;11.82;9.20;;;17.00;99.90;;;;;;5016596;28;20419;-68
2023/10/02 01:03:04;;;;;;;12.48;8.70;;;16.90;99.90;;;;;;5019720;28;20525;-68
2023/10/02 01:05:42;;;;;;;11.80;9.10;;;16.90;99.90;;;;;;5023484;28;20681;-68
2023/10/02 01:08:23;;;;;;;11.38;8.55;;;16.90;99.90;;;;;;5017344;28;20490;-69
2023/10/02 01:10:56;;;;;;;11.20;8.93;;;16.90;99.90;;;;;;5023320;28;20735;-69
2023/10/02 01:13:27;;;;;;;13.20;8.90;;;16.90;99.90;;;;;;5020520;28;20419;-68
2023/10/02 01:15:54;;;;;;;12.18;9.05;;;16.80;99.90;;;;;;5017063;28;20462;-69
2023/10/02 01:18:27;;;;;;;13.07;9.10;;;16.80;99.90;;;;;;5019442;28;20766;-69
2023/10/02 01:20:56;;;;;;;11.43;9.35;;;16.80;99.90;;;;;;5012997;28;20441;-69
2023/10/02 01:23:26;;;;;;;12.70;9.10;;;16.80;99.90;;;;;;5023597;28;20754;-69
2023/10/02 01:25:57;;;;;;;12.48;8.80;;;16.80;99.90;;;;;;5020386;28;20486;-68
2023/10/02 01:28:30;;;;;;;11.10;8.75;;;16.70;99.90;;;;;;5017416;28;20422;-68
2023/10/02 01:30:57;;;;;;;12.68;9.15;;;16.70;99.90;;;;;;5017269;28;20416;-69
2023/10/02 01:33:26;;;;;;;12.57;9.13;;;16.70;99.90;;;;;;5018684;28;20589;-69
2023/10/02 01:35:55;;;;;;;12.40;8.73;;;16.60;99.90;;;;;;5015425;28;20847;-69
2023/10/02 01:38:29;;;;;;;11.57;8.40;;;16.70;99.90;;;;;;5020923;28;20450;-69
2023/10/02 01:41:04;;;;;;;12.40;9.20;;;16.60;99.90;;;;;;5014764;28;20467;-69
2023/10/02 01:43:35;;;;;;;12.45;9.05;;;16.60;99.90;;;;;;5019594;28;20412;-69
2023/10/02 01:46:05;;;;;;;13.10;9.00;;;16.60;99.90;;;;;;5018550;28;20900;-69
2023/10/02 01:48:40;;;;;;;11.15;8.50;;;16.60;99.90;;;;;;5007298;28;20519;-69
2023/10/02 01:51:21;;;;;;;14.93;9.15;;;16.50;99.90;;;;;;5023732;28;20411;-68
2023/10/02 01:53:49;;;;;;;12.40;9.88;;;16.50;99.90;;;;;;5031978;28;20872;-69
2023/10/02 01:56:18;;;;;;;12.60;9.00;;;16.50;99.90;;;;;;5022904;28;20447;-68
2023/10/02 01:58:48;;;;;;;11.25;8.50;;;16.40;99.90;;;;;;5019212;28;20766;-68
2023/10/02 02:01:16;;;;;;;11.27;8.80;;;16.40;99.90;;;;;;5022501;28;20636;-68
2023/10/02 02:03:46;;;;;;;10.90;8.57;;;16.40;99.90;;;;;;5020437;28;20851;-68
2023/10/02 02:06:16;;;;;;;11.13;8.60;;;16.40;99.90;;;;;;5011511;28;20882;-68
2023/10/02 02:08:44;;;;;;;12.00;8.57;;;16.30;99.90;;;;;;5017708;28;20429;-68
2023/10/02 02:11:18;;;;;;;10.85;8.52;;;16.30;99.90;;;;;;5016415;28;20405;-68
2023/10/02 02:13:51;;;;;;;11.05;8.82;;;16.30;99.90;;;;;;5016850;28;20439;-68
2023/10/02 02:16:25;;;;;;;11.02;8.43;;;16.30;99.90;;;;;;5019404;28;20760;-69
2023/10/02 02:18:53;;;;;;;12.52;9.25;;;16.30;99.90;;;;;;5021863;28;20449;-68
2023/10/02 02:21:24;;;;;;;13.88;9.30;;;16.20;99.90;;;;;;5015498;28;20763;-68
2023/10/02 02:24:03;;;;;;;12.10;8.77;;;16.20;99.90;;;;;;5028239;28;20419;-68
2023/10/02 02:26:31;;;;;;;12.63;9.25;;;16.20;99.90;;;;;;5015017;28;20807;-69
2023/10/02 02:28:59;;;;;;;13.90;9.93;;;16.20;99.90;;;;;;5016363;28;20469;-68
2023/10/02 02:31:32;;;;;;;11.40;8.77;;;16.20;99.90;;;;;;5018814;28;20411;-68
2023/10/02 02:34:08;;;;;;;11.77;9.10;;;16.20;99.90;;;;;;5020079;28;20914;-70
2023/10/02 02:36:35;;;;;;;12.18;9.27;;;16.10;99.90;;;;;;5023702;28;20480;-69
2023/10/02 02:39:15;;;;;;;12.55;8.90;;;16.10;99.90;;;;;;5019163;28;20432;-68
2023/10/02 02:41:43;;;;;;;11.73;8.90;;;16.10;99.90;;;;;;5022214;28;20434;-68
2023/10/02 02:44:29;;;;;;;12.32;8.93;;;16.10;99.90;;;;;;5020664;28;20425;-68
2023/10/02 02:46:55;;;;;;;10.65;7.90;;;16.00;99.90;;;;;;5021460;28;20420;-68
2023/10/02 02:49:25;;;;;;;11.30;8.70;;;16.00;99.90;;;;;;5031112;28;20577;-68
2023/10/02 02:51:55;;;;;;;12.43;8.98;;;16.00;99.90;;;;;;5021985;28;20740;-68
2023/10/02 02:54:24;;;;;;;12.05;9.18;;;15.90;99.90;;;;;;5017916;28;20435;-69
2023/10/02 02:56:56;;;;;;;11.73;8.95;;;15.90;99.90;;;;;;5019815;28;20545;-68
2023/10/02 02:59:26;;;;;;;14.70;9.63;;;15.90;99.90;;;;;;5023781;28;20464;-69
2023/10/02 03:02:08;;;;;;;11.23;8.50;;;15.90;99.90;;;;;;5020565;28;20451;-68
2023/10/02 03:04:36;;;;;;;13.65;9.57;;;15.90;99.90;;;;;;5020565;28;20433;-68
2023/10/02 03:07:09;;;;;;;12.48;8.70;;;15.90;99.90;;;;;;5024620;28;20415;-68
2023/10/02 03:09:36;;;;;;;12.82;9.57;;;15.90;99.90;;;;;;5020137;28;20515;-68
2023/10/02 03:12:05;;;;;;;12.07;8.55;;;15.90;99.90;;;;;;5023368;28;20410;-68
2023/10/02 03:14:33;;;;;;;11.48;8.93;;;15.80;99.90;;;;;;5025363;28;20438;-68
2023/10/02 03:17:22;;;;;;;11.80;8.93;;;15.80;99.90;;;;;;5022808;28;20897;-68
2023/10/02 03:19:49;;;;;;;12.48;9.02;;;15.80;99.90;;;;;;5024648;28;20469;-67
2023/10/02 03:22:17;;;;;;;11.52;9.98;;;15.80;99.90;;;;;;5019611;28;20929;-68
2023/10/02 03:24:45;;;;;;;11.80;9.50;;;15.80;99.90;;;;;;5019613;28;20986;-70
2023/10/02 03:27:14;;;;;;;12.82;9.30;;;15.80;99.90;;;;;;5017068;28;20526;-68
2023/10/02 03:29:43;;;;;;;12.65;9.30;;;15.80;99.90;;;;;;5023781;28;20461;-68
2023/10/02 03:32:11;;;;;;;11.37;8.97;;;15.80;99.90;;;;;;5020236;28;20411;-68
2023/10/02 03:34:38;;;;;;;11.77;9.20;;;15.80;99.90;;;;;;5021959;28;20530;-68
2023/10/02 03:37:13;;;;;;;12.20;9.05;;;15.70;99.90;;;;;;5024491;28;20852;-70
2023/10/02 03:39:59;;;;;;;16.05;10.13;;;15.70;99.90;;;;;;5025178;28;20442;-70
2023/10/02 03:42:30;;;;;;;11.32;9.45;;;15.70;99.90;;;;;;5026398;28;20512;-70
2023/10/02 03:45:00;;;;;;;10.85;8.93;;;15.70;99.90;;;;;;5022180;28;20443;-70
2023/10/02 03:47:30;;;;;;;12.52;9.75;;;15.60;99.90;;;;;;5021080;28;20419;-70
2023/10/02 03:50:01;;;;;;;11.95;9.10;;;15.60;99.90;;;;;;5025821;28;20947;-72
2023/10/02 03:52:29;;;;;;;12.23;8.82;;;15.60;99.90;;;;;;5020504;28;20461;-70
2023/10/02 03:54:56;;;;;;;13.13;8.63;;;15.60;99.90;;;;;;5021595;28;20417;-71
2023/10/02 03:57:47;;;;;;;11.05;8.95;;;15.60;99.90;;;;;;5019167;28;20417;-71
2023/10/02 04:00:18;;;;;;;12.80;9.60;;;15.50;99.90;;;;;;5012306;28;20509;-71
2023/10/02 04:02:46;;;;;;;12.67;8.70;;;15.50;99.90;;;;;;5016673;28;20441;-71
2023/10/02 04:05:30;;;;;;;10.88;8.75;;;15.60;99.90;;;;;;5019946;28;20431;-71
2023/10/02 04:08:12;;;;;;;11.45;9.30;;;15.60;99.90;;;;;;5024631;28;20454;-71
2023/10/02 04:10:51;;;;;;;13.65;9.18;;;15.50;99.90;;;;;;5022947;28;20542;-72
2023/10/02 04:13:20;;;;;;;11.25;9.13;;;15.50;99.90;;;;;;5017925;28;20504;-71
2023/10/02 04:15:49;;;;;;;12.85;9.50;;;15.50;99.90;;;;;;5023056;28;20449;-71
2023/10/02 04:18:45;;;;;;;10.82;9.00;;;15.50;99.90;;;;;;5017757;28;20839;-71
2023/10/02 04:21:12;;;;;;;12.63;9.10;;;15.50;99.90;;;;;;5022155;28;20422;-70
2023/10/02 04:23:42;;;;;;;11.60;9.40;;;15.50;99.90;;;;;;5024644;28;20959;-71
2023/10/02 04:26:19;;;;;;;11.65;9.23;;;15.50;99.90;;;;;;5024419;28;20435;-71
2023/10/02 04:28:49;;;;;;;11.65;9.27;;;15.50;99.90;;;;;;5013961;28;20423;-68
2023/10/02 04:31:22;;;;;;;12.88;9.07;;;15.40;99.90;;;;;;5011481;28;20434;-70
2023/10/02 04:34:00;;;;;;;11.52;9.18;;;15.40;99.90;;;;;;5024357;28;20620;-68
2023/10/02 04:36:34;;;;;;;12.95;10.30;;;15.40;99.90;;;;;;5017757;28;20562;-68
2023/10/02 04:39:04;;;;;;;12.90;9.40;;;15.40;99.90;;;;;;5019196;28;20424;-68
2023/10/02 04:41:42;;;;;;;12.07;9.73;;;15.40;99.90;;;;;;5016953;28;20417;-68
2023/10/02 04:44:18;;;;;;;11.88;9.02;;;15.30;99.90;;;;;;5017914;28;20505;-68
2023/10/02 04:46:46;;;;;;;12.93;9.50;;;15.30;99.90;;;;;;5019070;28;20466;-69
2023/10/02 04:49:11;;;;;;;11.57;8.80;;;15.30;99.90;;;;;;5022751;28;20441;-68
2023/10/02 04:51:44;;;;;;;13.63;9.98;;;15.30;99.90;;;;;;5018119;28;20728;-69
2023/10/02 04:54:11;;;;;;;11.73;8.90;;;15.30;99.90;;;;;;5024429;28;20426;-68
2023/10/02 04:56:46;;;;;;;11.95;9.43;;;15.30;99.90;;;;;;5018814;28;20510;-68
2023/10/02 04:59:13;;;;;;;12.20;8.55;;;15.30;99.90;;;;;;5016526;28;20411;-68
2023/10/02 05:01:42;;;;;;;12.90;9.57;;;15.30;99.90;;;;;;5021781;28;20444;-68
2023/10/02 05:04:15;;;;;;;11.90;9.38;;;15.30;99.90;;;;;;5022137;28;20435;-67
2023/10/02 05:06:52;;;;;;;12.60;9.60;;;15.30;99.90;;;;;;5019600;28;20905;-68
2023/10/02 05:09:20;;;;;;;10.73;9.18;;;15.20;99.90;;;;;;5020823;28;20888;-68
2023/10/02 05:11:52;;;;;;;12.23;9.70;;;15.20;99.90;;;;;;5025383;28;20854;-68
2023/10/02 05:14:26;;;;;;;13.95;10.10;;;15.20;99.90;;;;;;5017661;28;20748;-68
2023/10/02 05:16:53;;;;;;;12.13;9.55;;;15.20;99.90;;;;;;5020863;28;20553;-68
2023/10/02 05:19:54;;;;;;;11.82;9.20;;;15.20;99.90;;;;;;5017680;28;20495;-69
2023/10/02 05:22:08;;;;;;;11.93;9.25;;;15.20;99.90;;;;;;5018811;28;20912;-68
2023/10/02 05:24:34;;;;;;;13.40;9.90;;;15.10;99.90;;;;;;5023068;28;20426;-68
2023/10/02 05:27:03;;;;;;;13.23;9.45;;;15.10;99.90;;;;;;5017432;28;20411;-68
2023/10/02 05:29:40;;;;;;;11.50;9.55;;;15.10;99.90;;;;;;5015167;28;20523;-68
2023/10/02 05:32:19;;;;;;;12.63;9.85;;;15.10;99.90;;;;;;5016687;28;20423;-69
2023/10/02 05:35:05;;;;;;;12.98;9.95;;;15.10;99.90;;;;;;5019145;28;20479;-68
2023/10/02 05:37:32;;;;;;;13.07;9.90;;;15.10;99.90;;;;;;5023399;28;20433;-68
2023/10/02 05:40:37;;;;;;;13.60;9.00;;;15.10;99.90;;;;;;5017560;28;20419;-68
2023/10/02 05:42:53;;;;;;;12.57;9.83;;;15.10;99.90;;;;;;5023000;28;20419;-68
2023/10/02 05:45:37;;;;;;;12.32;9.48;;;15.10;99.90;;;;;;5015216;28;20574;-69
2023/10/02 05:48:07;;;;;;;11.88;9.40;;;15.10;99.90;;;;;;5016575;28;20557;-68
2023/10/02 05:50:38;;;;;;;15.37;10.00;;;15.10;99.90;;;;;;5020584;28;20480;-68
2023/10/02 05:53:06;;;;;;;13.65;9.70;;;15.10;99.90;;;;;;5016163;28;20427;-68
2023/10/02 05:55:56;;;;;;;13.83;9.30;;;15.10;99.90;;;;;;5021434;28;20454;-69
2023/10/02 05:58:27;;;;;;;13.10;9.20;;;15.10;99.90;;;;;;5016683;28;20438;-68
2023/10/02 06:00:55;;;;;;;13.95;9.25;;;15.10;99.90;;;;;;5026991;28;20429;-69
2023/10/02 06:03:22;;;;;;;12.75;9.13;;;15.10;99.90;;;;;;5020298;28;20435;-68
2023/10/02 06:08:33;;;;;;;13.88;9.80;;;15.10;99.90;;;;;;5013726;28;20411;-68
2023/10/02 06:11:25;;;;;;;13.35;9.52;;;15.10;99.90;;;;;;5014090;28;20891;-68
2023/10/02 06:13:54;;;;;;;12.60;9.70;;;15.10;99.90;;;;;;5015576;28;20518;-69
2023/10/02 06:16:24;;;;;;;11.48;9.38;;;15.20;99.90;;;;;;5023004;28;20481;-68
2023/10/02 06:19:01;;;;;;;12.25;9.13;;;15.20;99.90;;;;;;5017712;28;20537;-68
2023/10/02 06:21:31;;;;;;;13.73;9.48;;;15.20;99.90;;;;;;5019129;28;20484;-68
2023/10/02 06:23:58;;;;;;;11.05;9.10;;;15.20;99.90;;;;;;5020451;28;20507;-68
2023/10/02 06:26:29;;;;;;;11.27;8.80;;;15.30;99.90;;;;;;5020272;28;20595;-68
2023/10/02 06:31:42;;;;;;;12.50;9.65;;;15.30;99.90;;;;;;5016799;28;20418;-68
2023/10/02 06:34:11;;;;;;;12.75;9.57;;;15.30;99.90;;;;;;5017555;28;21480;-68
2023/10/02 06:36:47;;;;;;;13.60;10.10;;;15.40;99.90;;;;;;5022201;28;20419;-68
2023/10/02 06:39:17;;;;;;;13.18;9.35;;;15.40;99.90;;;;;;5023246;28;20441;-68
2023/10/02 06:41:45;;;;;;;13.07;9.40;;;15.50;99.90;;;;;;5023541;28;20477;-69
2023/10/02 06:44:20;;;;;;;11.82;9.15;;;15.50;99.90;;;;;;5014775;28;20801;-69
2023/10/02 06:46:55;;;;;;;12.57;9.35;;;15.50;99.90;;;;;;5016511;28;20431;-68
2023/10/02 06:49:23;;;;;;;12.25;9.60;;;15.60;99.90;;;;;;5020559;28;20427;-70
2023/10/02 06:51:51;;;;;;;11.70;9.38;;;15.60;99.90;;;;;;5017513;28;20436;-69
2023/10/02 06:54:19;;;;;;;12.45;10.05;;;15.70;99.90;;;;;;5017150;28;20896;-69
2023/10/02 06:56:46;;;;;;;12.20;9.77;;;15.70;99.90;;;;;;5020621;28;20418;-69
2023/10/02 06:59:12;;;;;;;11.55;8.88;;;15.80;99.90;;;;;;5020647;28;20874;-69
2023/10/02 07:02:01;;;;;;;11.07;8.80;;;15.90;99.90;;;;;;5033943;28;20495;-69
2023/10/02 07:04:30;;;;;;;13.45;9.15;;;15.90;99.90;;;;;;5015981;28;20427;-69
2023/10/02 07:07:03;;;;;;;11.20;8.80;;;16.00;99.90;;;;;;5022799;28;20797;-69
2023/10/02 07:09:34;;;;;;;12.50;8.70;;;16.00;99.90;;;;;;5018533;28;20458;-69
2023/10/02 07:12:09;;;;;;;11.15;8.60;;;16.00;99.90;;;;;;5020512;28;20427;-69
2023/10/02 07:14:36;;;;;;;12.82;9.65;;;16.00;99.90;;;;;;5016283;28;20829;-69
2023/10/02 07:17:12;;;;;;;12.35;8.80;;;16.10;99.90;;;;;;5020144;28;20415;-69
2023/10/02 07:19:39;;;;;;;12.40;9.05;;;16.10;99.90;;;;;;5018280;28;20457;-69
2023/10/02 07:22:16;;;;;;;11.20;8.45;;;16.20;99.90;;;;;;5021543;28;20414;-69
2023/10/02 07:24:46;;;;;;;12.18;8.73;;;16.20;99.90;;;;;;5022526;28;20504;-69
2023/10/02 07:27:23;;;;;;;11.77;8.80;;;16.30;99.90;;;;;;5029835;28;20747;-69
2023/10/02 07:29:54;;;;;;;11.40;9.00;;;16.40;99.90;;;;;;5021707;28;20433;-70
2023/10/02 07:32:22;;;;;;;13.55;8.82;;;16.50;99.90;;;;;;5024128;28;20837;-69
2023/10/02 07:34:50;;;;;;;11.77;9.10;;;16.60;99.90;;;;;;5021732;28;20453;-69
2023/10/02 07:37:22;;;;;;;12.20;9.07;;;16.70;99.90;;;;;;5022635;28;20499;-69
2023/10/02 07:39:56;;;;;;;14.10;9.20;;;16.90;99.90;;;;;;5030700;28;20474;-69
2023/10/02 07:42:24;;;;;;;10.90;8.85;;;17.00;99.90;;;;;;5018173;28;20466;-69
2023/10/02 07:44:52;;;;;;;12.55;9.20;;;17.10;99.80;;;;;;5033133;28;20433;-69
2023/10/02 07:47:20;;;;;;;10.98;8.90;;;17.20;99.50;;;;;;5021523;28;20440;-69
2023/10/02 07:49:51;;;;;;;11.43;8.73;;;17.30;99.10;;;;;;5023871;28;20457;-70
2023/10/02 07:52:35;;;;;;;11.57;8.50;;;17.50;99.00;;;;;;5022340;28;20510;-70
2023/10/02 07:55:03;;;;;;;11.37;8.60;;;17.70;98.00;;;;;;5025029;28;20878;-70
2023/10/02 07:57:34;;;;;;;11.07;8.88;;;17.90;97.30;;;;;;5018513;28;20437;-70
2023/10/02 08:00:05;;;;;;;11.38;8.80;;;18.00;97.10;;;;;;5017569;28;20458;-70
2023/10/02 08:02:33;;;;;;;11.32;9.30;;;18.20;96.50;;;;;;5021821;28;20493;-70
2023/10/02 08:05:04;;;;;;;10.88;8.77;;;18.30;95.70;;;;;;5023311;28;20443;-70
2023/10/02 08:07:33;;;;;;;11.27;8.73;;;18.50;95.60;;;;;;5026495;28;20421;-70
2023/10/02 08:10:00;;;;;;;10.40;8.30;;;18.60;94.90;;;;;;5020519;28;20452;-70
2023/10/02 08:12:34;;;;;;;10.95;8.57;;;18.70;94.40;;;;;;5026789;28;20533;-70
2023/10/02 08:15:26;;;;;;;11.63;9.20;;;18.90;93.80;;;;;;5016226;28;20540;-72
2023/10/02 08:18:04;;;;;;;10.52;8.10;;;19.10;93.40;;;;;;5023542;28;20471;-74
2023/10/02 08:20:37;;;;;;;12.98;8.57;;;19.10;92.90;;;;;;5019526;28;20815;-73
2023/10/02 08:23:21;;;;;;;11.60;9.13;;;19.20;92.70;;;;;;5024059;28;20434;-72
2023/10/02 08:26:00;;;;;;;10.48;8.25;;;19.40;92.00;;;;;;5020247;28;20880;-72
2023/10/02 08:28:29;;;;;;;11.38;9.00;;;19.50;91.80;;;;;;5022465;28;20547;-72
2023/10/02 08:31:00;;;;;;;12.20;8.40;;;19.70;91.80;;;;;;5024753;28;20474;-73
2023/10/02 08:33:29;;;;;;;12.30;8.90;;;19.70;91.00;;;;;;5024686;28;20882;-73
2023/10/02 08:35:55;;;;;;;10.40;8.10;;;19.90;90.70;;;;;;5020327;28;20537;-73
2023/10/02 08:38:24;;;;;;;9.77;8.00;;;20.00;90.20;;;;;;5023014;28;20438;-72
2023/10/02 08:40:57;;;;;;;11.32;8.30;;;20.00;89.80;;;;;;5021316;28;20446;-72
2023/10/02 08:43:24;;;;;;;10.90;8.40;;;20.20;90.00;;;;;;5020090;28;20522;-72
2023/10/02 08:45:51;;;;;;;11.40;8.45;;;20.30;88.50;;;;;;5022658;28;20513;-73
2023/10/02 08:48:20;;;;;;;11.07;8.20;;;20.50;87.80;;;;;;5014293;28;20538;-73
2023/10/02 08:50:48;;;;;;;10.17;8.30;;;20.50;87.20;;;;;;5020305;28;20477;-73
2023/10/02 08:53:20;;;;;;;11.68;8.02;;;20.70;87.30;;;;;;5019031;28;20481;-73
2023/10/02 08:55:54;;;;;;;11.18;8.77;;;20.80;85.80;;;;;;5019937;28;20418;-72
2023/10/02 08:58:25;;;;;;;13.57;8.50;;;20.90;85.40;;;;;;5021528;28;20407;-71
2023/10/02 09:01:20;;;;;;;11.40;9.10;;;21.00;85.50;;;;;;5023528;28;20434;-71
2023/10/02 09:04:21;;;;;;;9.88;8.02;;;21.10;85.20;;;;;;5022676;28;20449;-71
2023/10/02 09:06:41;;;;;;;11.57;8.60;;;21.30;85.10;;;;;;5017958;28;20440;-71
2023/10/02 09:09:17;;;;;;;11.75;8.65;;;21.50;84.20;;;;;;5022647;28;20427;-71
2023/10/02 09:11:45;;;;;;;10.55;8.80;;;21.70;83.10;;;;;;5017935;28;20473;-71
2023/10/02 09:14:21;;;;;;;10.88;8.02;;;21.80;82.80;;;;;;5016731;28;20454;-71
2023/10/02 09:17:07;;;;;;;10.17;8.20;;;22.10;82.30;;;;;;5021783;28;20863;-71
2023/10/02 09:19:34;;;;;;;12.75;8.38;;;22.30;80.90;;;;;;5015685;28;20616;-71
2023/10/02 09:22:07;;;;;;;10.00;7.40;;;22.40;80.30;;;;;;5016272;28;20741;-71
2023/10/02 09:24:35;;;;;;;10.40;8.15;;;22.50;78.80;;;;;;5016266;28;20447;-71
2023/10/02 09:29:45;;;;;;;10.10;8.15;;;22.50;77.40;;;;;;5023238;28;20873;-71
2023/10/02 09:32:21;;;;;;;12.52;8.45;;;22.60;77.60;;;;;;5020270;28;20701;-71
2023/10/02 09:37:35;;;;;;;10.05;8.80;;;23.20;76.70;;;;;;5015819;28;20496;-72
2023/10/02 09:40:14;;;;;;;12.00;8.10;;;23.40;75.40;;;;;;5022703;28;20431;-71
2023/10/02 09:42:45;;;;;;;10.45;7.65;;;23.60;74.00;;;;;;5022055;28;20437;-71
2023/10/02 09:45:16;;;;;;;9.98;8.02;;;23.90;71.70;;;;;;5023009;28;20418;-71
2023/10/02 09:47:43;;;;;;;9.23;7.32;;;24.00;70.90;;;;;;5022978;28;20489;-71
2023/10/02 09:50:23;;;;;;;9.93;8.00;;;24.10;70.70;;;;;;5017667;28;20740;-71
2023/10/02 09:52:58;;;;;;;9.75;7.43;;;24.20;69.70;;;;;;5022537;28;20610;-71
2023/10/02 09:55:37;;;;;;;8.63;7.40;;;24.30;69.80;;;;;;5011506;28;20419;-71
2023/10/02 09:58:26;;;;;;;10.85;8.50;;;24.40;68.40;;;;;;5020552;28;20459;-71
2023/10/02 10:01:29;;;;;;;10.63;8.60;;;24.50;68.10;;;;;;5022398;28;20721;-71
2023/10/02 10:03:55;;;;;;;11.15;8.57;;;24.50;67.30;;;;;;5015671;28;20558;-71
2023/10/02 10:06:28;;;;;;;10.52;8.05;;;24.50;67.50;;;;;;5021224;28;20427;-71
2023/10/02 10:09:20;;;;;;;9.45;7.85;;;24.60;67.90;;;;;;5022606;28;20777;-71
2023/10/02 10:12:21;;;;;;;11.95;8.48;;;24.90;67.30;;;;;;5018963;28;20876;-71
2023/10/02 10:14:42;;;;;;;10.23;8.00;;;25.00;66.00;;;;;;5022166;28;20487;-71
2023/10/02 10:17:49;;;;;;;9.43;8.23;;;25.20;65.70;;;;;;5022083;28;20537;-71
2023/10/02 10:20:22;;;;;;;9.10;7.97;;;25.40;63.60;;;;;;5019950;28;20800;-71
2023/10/02 10:22:55;;;;;;;12.43;8.20;;;25.40;63.60;;;;;;5012878;28;20885;-71
2023/10/02 10:25:44;;;;;;;10.07;7.85;;;25.40;63.80;;;;;;5016280;28;20633;-71
2023/10/02 10:28:27;;;;;;;8.52;7.63;;;25.40;63.00;;;;;;5014359;28;20998;-71
2023/10/02 10:31:01;;;;;;;10.52;8.13;;;25.50;62.30;;;;;;5025254;28;20414;-71
2023/10/02 10:33:36;;;;;;;10.93;8.68;;;25.70;62.80;;;;;;5020081;28;20500;-71
2023/10/02 10:36:09;;;;;;;10.82;9.02;;;25.80;61.70;;;;;;5024110;28;20470;-71
2023/10/02 10:38:41;;;;;;;10.10;8.00;;;25.80;61.50;;;;;;5018859;28;20618;-71
2023/10/02 10:41:09;;;;;;;12.77;8.70;;;26.00;61.50;;;;;;5022100;28;20446;-71
2023/10/02 10:43:46;;;;;;;10.43;8.00;;;26.00;59.70;;;;;;5021240;28;20935;-71
2023/10/02 10:46:20;;;;;;;10.55;7.90;;;26.00;59.70;;;;;;5019620;28;20497;-71
2023/10/02 10:48:59;;;;;;;10.05;8.07;;;26.10;59.60;;;;;;5016488;28;20633;-71
2023/10/02 10:51:27;;;;;;;10.80;7.90;;;26.30;59.50;;;;;;5013141;28;20841;-71
2023/10/02 10:54:12;;;;;;;9.75;7.97;;;26.50;58.40;;;;;;5021238;28;20434;-71
2023/10/02 10:56:43;;;;;;;8.77;7.88;;;26.70;58.00;;;;;;5025674;28;20407;-71
2023/10/02 10:59:11;;;;;;;9.70;8.10;;;26.80;56.30;;;;;;5024518;28;20436;-71
2023/10/02 11:01:48;;;;;;;10.03;8.30;;;26.70;56.80;;;;;;5031647;28;20415;-71
2023/10/02 11:04:26;;;;;;;9.95;8.43;;;26.70;57.20;;;;;;5025228;28;20438;-71
2023/10/02 11:06:53;;;;;;;9.45;8.23;;;26.70;57.80;;;;;;5022967;28;20437;-71
2023/10/02 11:09:20;;;;;;;10.57;8.40;;;26.70;57.20;;;;;;5018922;28;20406;-71
2023/10/02 11:11:50;;;;;;;9.98;8.20;;;26.70;56.70;;;;;;5021275;28;20901;-71
2023/10/02 11:14:21;;;;;;;9.77;8.10;;;26.60;57.20;;;;;;5028363;28;20496;-71
2023/10/02 11:16:54;;;;;;;8.90;7.88;;;26.70;57.30;;;;;;5022644;28;20427;-71
2023/10/02 11:19:25;;;;;;;10.23;7.93;;;26.80;57.40;;;;;;5031244;28;20899;-71
2023/10/02 11:22:19;;;;;;;9.95;7.93;;;26.80;56.70;;;;;;5026465;28;20569;-71
2023/10/02 11:24:49;;;;;;;10.50;8.50;;;26.90;56.50;;;;;;5024008;28;20430;-71
2023/10/02 11:27:16;;;;;;;9.90;7.60;;;27.20;54.90;;;;;;5019638;28;20423;-71
2023/10/02 11:29:45;;;;;;;9.38;8.32;;;27.30;54.90;;;;;;5029691;28;20428;-71
2023/10/02 11:32:19;;;;;;;10.70;8.68;;;27.40;53.90;;;;;;5025250;28;20570;-71
2023/10/02 11:34:47;;;;;;;10.40;8.55;;;27.50;51.70;;;;;;5020668;28;20489;-71
2023/10/02 11:37:15;;;;;;;9.35;8.18;;;27.60;52.50;;;;;;5015980;28;20522;-71
2023/10/02 11:39:42;;;;;;;11.60;8.32;;;27.90;52.40;;;;;;5025542;28;20418;-71
2023/10/02 11:42:09;;;;;;;9.77;8.40;;;27.90;53.30;;;;;;5026336;28;21007;-71
2023/10/02 11:44:39;;;;;;;10.18;8.70;;;28.10;51.50;;;;;;5033295;28;20434;-71
2023/10/02 11:47:09;;;;;;;10.82;8.50;;;28.20;50.80;;;;;;5024255;28;20422;-71
2023/10/02 11:49:37;;;;;;;9.93;8.10;;;28.20;50.30;;;;;;5024279;28;20524;-71
2023/10/02 11:52:05;;;;;;;9.88;8.70;;;28.30;50.20;;;;;;5032534;28;20460;-72
2023/10/02 11:54:36;;;;;;;9.70;8.53;;;28.30;49.30;;;;;;5024508;28;20437;-71
2023/10/02 11:57:08;;;;;;;9.35;7.68;;;28.40;49.70;;;;;;5016977;28;20420;-71
2023/10/02 11:59:35;;;;;;;10.40;8.68;;;28.50;47.40;;;;;;5021802;28;20985;-72
2023/10/02 12:02:03;;;;;;;10.77;8.30;;;28.80;47.60;;;;;;5030277;28;20415;-72
2023/10/02 12:04:30;;;;;;;9.85;8.73;;;28.70;47.00;;;;;;5022397;28;20430;-71
2023/10/02 12:06:58;;;;;;;10.88;8.73;;;28.60;47.50;;;;;;5025058;28;20438;-71
2023/10/02 12:09:27;;;;;;;9.55;8.55;;;28.60;47.80;;;;;;5017890;28;20439;-71
2023/10/02 12:11:54;;;;;;;9.75;8.18;;;28.80;47.60;;;;;;5020620;28;20518;-71
2023/10/02 12:14:22;;;;;;;10.43;9.00;;;28.90;47.60;;;;;;5020541;28;20514;-72
2023/10/02 12:16:49;;;;;;;9.55;8.45;;;29.00;47.30;;;;;;5063366;22;20465;-69
2023/10/02 12:19:15;;;;;;;9.68;8.50;;;28.90;47.80;;;;;;5057129;28;20413;-72
2023/10/02 12:21:42;;;;;;;9.65;8.40;;;29.00;48.90;;;;;;5061459;28;20435;-71
2023/10/02 12:24:10;;;;;;;9.70;8.30;;;29.10;47.70;;;;;;5058114;28;20433;-70
2023/10/02 12:26:38;;;;;;;9.70;8.02;;;29.20;47.70;;;;;;5038427;28;20419;-71
2023/10/02 12:29:05;;;;;;;9.90;8.20;;;29.20;47.10;;;;;;5035867;28;20794;-69
2023/10/02 12:31:36;;;;;;;11.30;8.90;;;29.20;47.40;;;;;;5028393;28;20457;-70
2023/10/02 12:34:03;;;;;;;10.18;8.40;;;29.10;47.60;;;;;;5041361;28;20415;-69
2023/10/02 12:36:31;;;;;;;10.70;8.87;;;29.10;47.50;;;;;;5034415;28;20773;-69
2023/10/02 12:38:58;;;;;;;10.27;8.25;;;29.20;48.10;;;;;;5038875;28;20977;-70
2023/10/02 12:41:27;;;;;;;9.80;8.50;;;29.30;47.40;;;;;;5033737;28;20502;-70
2023/10/02 12:43:56;;;;;;;9.50;8.50;;;29.40;47.60;;;;;;5025717;28;20417;-71
2023/10/02 12:46:24;;;;;;;8.80;7.90;;;29.50;46.90;;;;;;5026553;28;20827;-69
2023/10/02 12:48:51;;;;;;;9.38;8.07;;;29.40;46.50;;;;;;5028767;28;20437;-69
2023/10/02 12:51:19;;;;;;;9.43;8.40;;;29.40;46.60;;;;;;5041804;28;20457;-71
2023/10/02 12:53:46;;;;;;;10.05;8.65;;;29.40;46.80;;;;;;5036251;28;20422;-69
2023/10/02 12:56:18;;;;;;;9.85;8.50;;;29.50;47.20;;;;;;5040619;28;20504;-70
2023/10/02 12:58:49;;;;;;;9.90;8.90;;;29.60;47.00;;;;;;5038009;28;20454;-71
2023/10/02 13:01:16;;;;;;;9.30;8.05;;;29.60;46.40;;;;;;5037493;28;20855;-71
2023/10/02 13:03:43;;;;;;;9.30;8.40;;;29.60;46.40;;;;;;5045694;28;20505;-72
2023/10/02 13:06:12;;;;;;;9.15;8.20;;;29.50;46.60;;;;;;5040486;28;20418;-71
2023/10/02 13:08:43;;;;;;;12.00;8.65;;;29.50;46.90;;;;;;5034432;28;20429;-70
2023/10/02 13:11:13;;;;;;;10.05;8.50;;;29.60;46.40;;;;;;5032470;28;20422;-71
2023/10/02 13:13:46;;;;;;;9.20;8.30;;;29.50;46.70;;;;;;5044232;28;20411;-69
2023/10/02 13:16:14;;;;;;;8.75;7.85;;;29.60;46.00;;;;;;5034877;28;20432;-71
2023/10/02 13:18:41;;;;;;;9.68;8.68;;;29.60;46.10;;;;;;5035641;28;20922;-71
2023/10/02 13:21:08;;;;;;;9.77;8.50;;;29.90;45.80;;;;;;5034865;28;20425;-70
2023/10/02 13:23:36;;;;;;;10.07;8.57;;;29.90;45.10;;;;;;5043412;28;20436;-71